sensor_id;sensor_type;location;lat;lon;timestamp;P1;durP1;ratioP1;P2;durP2;ratioP2
75195;SDS011;63773;42.282;22.782;2022-11-20T00:00:34;3.20;;;1.10;;
75195;SDS011;63773;42.282;22.782;2022-11-20T00:02:59;3.85;;;1.30;;
75195;SDS011;63773;42.282;22.782;2022-11-20T00:05:25;4.65;;;1.38;;
75195;SDS011;63773;42.282;22.782;2022-11-20T00:07:50;4.85;;;0.93;;
75195;SDS011;63773;42.282;22.782;2022-11-20T00:10:16;7.05;;;1.58;;
75195;SDS011;63773;42.282;22.782;2022-11-20T00:12:41;3.08;;;1.13;;
75195;SDS011;63773;42.282;22.782;2022-11-20T00:15:07;5.47;;;1.65;;
75195;SDS011;63773;42.282;22.782;2022-11-20T00:17:33;2.10;;;0.77;;
75195;SDS011;63773;42.282;22.782;2022-11-20T00:19:58;4.95;;;0.95;;
75195;SDS011;63773;42.282;22.782;2022-11-20T00:22:24;3.20;;;0.65;;
75195;SDS011;63773;42.282;22.782;2022-11-20T00:24:49;1.90;;;0.77;;
75195;SDS011;63773;42.282;22.782;2022-11-20T00:27:15;5.05;;;1.17;;
75195;SDS011;63773;42.282;22.782;2022-11-20T00:29:40;3.80;;;0.80;;
75195;SDS011;63773;42.282;22.782;2022-11-20T00:32:06;3.38;;;1.02;;
75195;SDS011;63773;42.282;22.782;2022-11-20T00:34:31;4.07;;;0.90;;
75195;SDS011;63773;42.282;22.782;2022-11-20T00:36:56;3.13;;;0.80;;
75195;SDS011;63773;42.282;22.782;2022-11-20T00:39:22;3.45;;;0.57;;
75195;SDS011;63773;42.282;22.782;2022-11-20T00:41:47;5.32;;;1.50;;
75195;SDS011;63773;42.282;22.782;2022-11-20T00:44:13;3.05;;;0.88;;
75195;SDS011;63773;42.282;22.782;2022-11-20T00:46:38;4.05;;;0.80;;
75195;SDS011;63773;42.282;22.782;2022-11-20T00:49:04;1.73;;;0.75;;
75195;SDS011;63773;42.282;22.782;2022-11-20T00:51:29;4.30;;;1.33;;
75195;SDS011;63773;42.282;22.782;2022-11-20T00:53:55;3.25;;;0.77;;
75195;SDS011;63773;42.282;22.782;2022-11-20T00:56:22;3.75;;;0.95;;
75195;SDS011;63773;42.282;22.782;2022-11-20T00:58:48;4.68;;;1.08;;
75195;SDS011;63773;42.282;22.782;2022-11-20T01:01:18;3.45;;;0.75;;
75195;SDS011;63773;42.282;22.782;2022-11-20T01:03:47;2.28;;;0.60;;
75195;SDS011;63773;42.282;22.782;2022-11-20T01:06:35;3.95;;;0.90;;
75195;SDS011;63773;42.282;22.782;2022-11-20T01:09:02;5.00;;;1.00;;
75195;SDS011;63773;42.282;22.782;2022-11-20T01:11:34;5.65;;;1.60;;
75195;SDS011;63773;42.282;22.782;2022-11-20T01:14:01;4.68;;;1.30;;
75195;SDS011;63773;42.282;22.782;2022-11-20T01:16:30;7.63;;;1.23;;
75195;SDS011;63773;42.282;22.782;2022-11-20T01:18:57;8.00;;;1.38;;
75195;SDS011;63773;42.282;22.782;2022-11-20T01:21:26;5.55;;;1.42;;
75195;SDS011;63773;42.282;22.782;2022-11-20T01:23:55;3.30;;;1.13;;
75195;SDS011;63773;42.282;22.782;2022-11-20T01:26:22;3.92;;;1.00;;
75195;SDS011;63773;42.282;22.782;2022-11-20T01:28:50;3.50;;;1.17;;
75195;SDS011;63773;42.282;22.782;2022-11-20T01:31:17;5.75;;;1.52;;
75195;SDS011;63773;42.282;22.782;2022-11-20T01:33:45;7.93;;;1.70;;
75195;SDS011;63773;42.282;22.782;2022-11-20T01:36:12;3.10;;;1.40;;
75195;SDS011;63773;42.282;22.782;2022-11-20T01:38:38;2.53;;;1.05;;
75195;SDS011;63773;42.282;22.782;2022-11-20T01:41:04;3.17;;;1.05;;
75195;SDS011;63773;42.282;22.782;2022-11-20T01:43:31;6.32;;;0.82;;
75195;SDS011;63773;42.282;22.782;2022-11-20T01:51:44;2.28;;;1.00;;
75195;SDS011;63773;42.282;22.782;2022-11-20T01:54:15;2.63;;;0.70;;
75195;SDS011;63773;42.282;22.782;2022-11-20T01:56:45;4.97;;;1.02;;
75195;SDS011;63773;42.282;22.782;2022-11-20T01:59:13;5.60;;;1.92;;
75195;SDS011;63773;42.282;22.782;2022-11-20T02:01:42;2.83;;;1.02;;
75195;SDS011;63773;42.282;22.782;2022-11-20T02:04:08;4.30;;;1.10;;
75195;SDS011;63773;42.282;22.782;2022-11-20T02:06:35;5.38;;;0.95;;
75195;SDS011;63773;42.282;22.782;2022-11-20T02:09:07;4.95;;;1.13;;
75195;SDS011;63773;42.282;22.782;2022-11-20T02:11:33;2.03;;;0.68;;
75195;SDS011;63773;42.282;22.782;2022-11-20T02:13:58;4.07;;;1.15;;
75195;SDS011;63773;42.282;22.782;2022-11-20T02:16:35;5.65;;;1.23;;
75195;SDS011;63773;42.282;22.782;2022-11-20T02:19:04;2.63;;;1.17;;
75195;SDS011;63773;42.282;22.782;2022-11-20T02:24:37;4.45;;;0.80;;
75195;SDS011;63773;42.282;22.782;2022-11-20T02:27:12;3.65;;;1.00;;
75195;SDS011;63773;42.282;22.782;2022-11-20T02:29:40;4.00;;;0.90;;
75195;SDS011;63773;42.282;22.782;2022-11-20T02:35:07;4.45;;;1.20;;
75195;SDS011;63773;42.282;22.782;2022-11-20T02:37:34;4.25;;;1.30;;
75195;SDS011;63773;42.282;22.782;2022-11-20T02:40:03;2.20;;;1.00;;
75195;SDS011;63773;42.282;22.782;2022-11-20T02:42:29;4.55;;;0.70;;
75195;SDS011;63773;42.282;22.782;2022-11-20T02:44:55;3.95;;;1.13;;
75195;SDS011;63773;42.282;22.782;2022-11-20T02:47:20;2.25;;;0.73;;
75195;SDS011;63773;42.282;22.782;2022-11-20T02:49:45;3.90;;;0.82;;
75195;SDS011;63773;42.282;22.782;2022-11-20T02:52:11;2.97;;;0.70;;
75195;SDS011;63773;42.282;22.782;2022-11-20T02:54:36;2.80;;;0.52;;
75195;SDS011;63773;42.282;22.782;2022-11-20T02:57:02;1.55;;;0.60;;
75195;SDS011;63773;42.282;22.782;2022-11-20T02:59:27;2.10;;;0.65;;
75195;SDS011;63773;42.282;22.782;2022-11-20T03:01:53;3.97;;;0.65;;
75195;SDS011;63773;42.282;22.782;2022-11-20T03:04:18;6.13;;;0.82;;
75195;SDS011;63773;42.282;22.782;2022-11-20T03:06:44;3.05;;;1.10;;
75195;SDS011;63773;42.282;22.782;2022-11-20T03:09:09;2.85;;;0.70;;
75195;SDS011;63773;42.282;22.782;2022-11-20T03:11:34;5.75;;;1.05;;
75195;SDS011;63773;42.282;22.782;2022-11-20T03:14:03;3.10;;;1.35;;
75195;SDS011;63773;42.282;22.782;2022-11-20T03:16:30;3.92;;;0.75;;
75195;SDS011;63773;42.282;22.782;2022-11-20T03:18:56;2.95;;;0.80;;
75195;SDS011;63773;42.282;22.782;2022-11-20T03:21:22;3.65;;;0.70;;
75195;SDS011;63773;42.282;22.782;2022-11-20T03:23:47;1.80;;;0.80;;
75195;SDS011;63773;42.282;22.782;2022-11-20T03:26:17;2.13;;;0.77;;
75195;SDS011;63773;42.282;22.782;2022-11-20T03:28:48;2.20;;;0.50;;
75195;SDS011;63773;42.282;22.782;2022-11-20T03:31:16;5.50;;;0.68;;
75195;SDS011;63773;42.282;22.782;2022-11-20T03:33:43;3.72;;;0.80;;
75195;SDS011;63773;42.282;22.782;2022-11-20T03:36:09;1.73;;;0.63;;
75195;SDS011;63773;42.282;22.782;2022-11-20T03:38:37;1.40;;;0.50;;
75195;SDS011;63773;42.282;22.782;2022-11-20T03:41:04;3.47;;;0.70;;
75195;SDS011;63773;42.282;22.782;2022-11-20T03:43:31;3.50;;;0.75;;
75195;SDS011;63773;42.282;22.782;2022-11-20T03:45:57;3.50;;;0.65;;
75195;SDS011;63773;42.282;22.782;2022-11-20T03:48:23;1.52;;;0.73;;
75195;SDS011;63773;42.282;22.782;2022-11-20T03:50:48;2.78;;;0.60;;
75195;SDS011;63773;42.282;22.782;2022-11-20T03:53:14;1.52;;;0.50;;
75195;SDS011;63773;42.282;22.782;2022-11-20T03:55:43;3.10;;;0.73;;
75195;SDS011;63773;42.282;22.782;2022-11-20T03:58:09;2.03;;;1.00;;
75195;SDS011;63773;42.282;22.782;2022-11-20T04:00:35;4.28;;;0.80;;
75195;SDS011;63773;42.282;22.782;2022-11-20T04:03:01;3.75;;;0.73;;
75195;SDS011;63773;42.282;22.782;2022-11-20T04:05:27;2.30;;;0.77;;
75195;SDS011;63773;42.282;22.782;2022-11-20T04:07:53;4.50;;;1.02;;
75195;SDS011;63773;42.282;22.782;2022-11-20T04:10:18;2.72;;;0.73;;
75195;SDS011;63773;42.282;22.782;2022-11-20T04:12:44;1.85;;;1.02;;
75195;SDS011;63773;42.282;22.782;2022-11-20T04:15:10;1.77;;;0.52;;
75195;SDS011;63773;42.282;22.782;2022-11-20T04:17:35;4.03;;;1.00;;
75195;SDS011;63773;42.282;22.782;2022-11-20T04:20:01;4.90;;;0.80;;
75195;SDS011;63773;42.282;22.782;2022-11-20T04:22:26;2.25;;;0.77;;
75195;SDS011;63773;42.282;22.782;2022-11-20T04:24:52;3.92;;;0.85;;
75195;SDS011;63773;42.282;22.782;2022-11-20T04:27:17;3.28;;;0.93;;
75195;SDS011;63773;42.282;22.782;2022-11-20T04:29:42;4.65;;;1.27;;
75195;SDS011;63773;42.282;22.782;2022-11-20T04:32:08;4.82;;;0.82;;
75195;SDS011;63773;42.282;22.782;2022-11-20T04:34:33;3.22;;;1.00;;
75195;SDS011;63773;42.282;22.782;2022-11-20T04:36:59;2.70;;;0.82;;
75195;SDS011;63773;42.282;22.782;2022-11-20T04:39:25;2.63;;;1.00;;
75195;SDS011;63773;42.282;22.782;2022-11-20T04:41:50;2.55;;;0.90;;
75195;SDS011;63773;42.282;22.782;2022-11-20T04:44:38;2.40;;;0.80;;
75195;SDS011;63773;42.282;22.782;2022-11-20T04:47:04;4.22;;;0.75;;
75195;SDS011;63773;42.282;22.782;2022-11-20T04:49:29;3.92;;;1.02;;
75195;SDS011;63773;42.282;22.782;2022-11-20T04:51:56;2.75;;;0.90;;
75195;SDS011;63773;42.282;22.782;2022-11-20T04:54:22;2.22;;;0.68;;
75195;SDS011;63773;42.282;22.782;2022-11-20T04:56:48;2.63;;;0.60;;
75195;SDS011;63773;42.282;22.782;2022-11-20T04:59:13;2.70;;;0.70;;
75195;SDS011;63773;42.282;22.782;2022-11-20T05:01:39;4.82;;;1.00;;
75195;SDS011;63773;42.282;22.782;2022-11-20T05:04:04;4.13;;;0.95;;
75195;SDS011;63773;42.282;22.782;2022-11-20T05:06:30;3.65;;;0.95;;
75195;SDS011;63773;42.282;22.782;2022-11-20T05:08:57;4.53;;;1.13;;
75195;SDS011;63773;42.282;22.782;2022-11-20T05:11:22;5.50;;;1.13;;
75195;SDS011;63773;42.282;22.782;2022-11-20T05:13:48;3.80;;;1.20;;
75195;SDS011;63773;42.282;22.782;2022-11-20T05:16:16;6.57;;;1.25;;
75195;SDS011;63773;42.282;22.782;2022-11-20T05:18:45;2.97;;;1.15;;
75195;SDS011;63773;42.282;22.782;2022-11-20T05:21:11;2.70;;;0.80;;
75195;SDS011;63773;42.282;22.782;2022-11-20T05:23:37;2.58;;;0.95;;
75195;SDS011;63773;42.282;22.782;2022-11-20T05:26:04;2.90;;;0.88;;
75195;SDS011;63773;42.282;22.782;2022-11-20T05:28:31;3.63;;;1.40;;
75195;SDS011;63773;42.282;22.782;2022-11-20T05:33:39;2.15;;;1.02;;
75195;SDS011;63773;42.282;22.782;2022-11-20T05:36:06;3.15;;;1.23;;
75195;SDS011;63773;42.282;22.782;2022-11-20T05:38:32;5.35;;;1.30;;
75195;SDS011;63773;42.282;22.782;2022-11-20T05:43:33;4.30;;;2.38;;
75195;SDS011;63773;42.282;22.782;2022-11-20T05:46:00;4.88;;;1.73;;
75195;SDS011;63773;42.282;22.782;2022-11-20T05:48:26;4.80;;;1.27;;
75195;SDS011;63773;42.282;22.782;2022-11-20T05:50:51;3.15;;;1.23;;
75195;SDS011;63773;42.282;22.782;2022-11-20T05:53:16;6.28;;;1.80;;
75195;SDS011;63773;42.282;22.782;2022-11-20T05:55:42;2.90;;;1.23;;
75195;SDS011;63773;42.282;22.782;2022-11-20T05:58:07;3.20;;;1.13;;
75195;SDS011;63773;42.282;22.782;2022-11-20T06:00:33;3.55;;;1.70;;
75195;SDS011;63773;42.282;22.782;2022-11-20T06:02:58;3.67;;;0.98;;
75195;SDS011;63773;42.282;22.782;2022-11-20T06:05:23;3.42;;;1.05;;
75195;SDS011;63773;42.282;22.782;2022-11-20T06:07:49;3.47;;;0.98;;
75195;SDS011;63773;42.282;22.782;2022-11-20T06:10:14;2.00;;;1.00;;
75195;SDS011;63773;42.282;22.782;2022-11-20T06:12:40;4.78;;;1.88;;
75195;SDS011;63773;42.282;22.782;2022-11-20T06:15:05;2.90;;;1.40;;
75195;SDS011;63773;42.282;22.782;2022-11-20T06:17:31;4.70;;;1.00;;
75195;SDS011;63773;42.282;22.782;2022-11-20T06:19:56;4.07;;;1.05;;
75195;SDS011;63773;42.282;22.782;2022-11-20T06:22:22;5.65;;;1.30;;
75195;SDS011;63773;42.282;22.782;2022-11-20T06:24:47;4.75;;;0.90;;
75195;SDS011;63773;42.282;22.782;2022-11-20T06:27:13;3.15;;;0.90;;
75195;SDS011;63773;42.282;22.782;2022-11-20T06:29:38;4.10;;;0.80;;
75195;SDS011;63773;42.282;22.782;2022-11-20T06:32:03;3.35;;;1.52;;
75195;SDS011;63773;42.282;22.782;2022-11-20T06:34:29;3.53;;;0.98;;
75195;SDS011;63773;42.282;22.782;2022-11-20T06:36:54;3.10;;;0.60;;
75195;SDS011;63773;42.282;22.782;2022-11-20T06:39:20;4.63;;;1.10;;
75195;SDS011;63773;42.282;22.782;2022-11-20T06:41:45;3.50;;;0.90;;
75195;SDS011;63773;42.282;22.782;2022-11-20T06:44:10;6.32;;;1.92;;
75195;SDS011;63773;42.282;22.782;2022-11-20T06:46:36;6.60;;;1.35;;
75195;SDS011;63773;42.282;22.782;2022-11-20T06:49:01;3.28;;;1.05;;
75195;SDS011;63773;42.282;22.782;2022-11-20T06:51:27;2.65;;;1.02;;
75195;SDS011;63773;42.282;22.782;2022-11-20T06:53:53;4.30;;;0.60;;
75195;SDS011;63773;42.282;22.782;2022-11-20T06:56:18;5.57;;;0.65;;
75195;SDS011;63773;42.282;22.782;2022-11-20T06:58:44;3.13;;;0.88;;
75195;SDS011;63773;42.282;22.782;2022-11-20T07:01:11;1.80;;;0.70;;
75195;SDS011;63773;42.282;22.782;2022-11-20T07:03:38;1.75;;;0.82;;
75195;SDS011;63773;42.282;22.782;2022-11-20T07:06:03;2.65;;;1.08;;
75195;SDS011;63773;42.282;22.782;2022-11-20T07:08:29;3.50;;;1.05;;
75195;SDS011;63773;42.282;22.782;2022-11-20T07:10:59;3.05;;;0.90;;
75195;SDS011;63773;42.282;22.782;2022-11-20T07:13:26;2.60;;;0.88;;
75195;SDS011;63773;42.282;22.782;2022-11-20T07:15:53;4.13;;;1.05;;
75195;SDS011;63773;42.282;22.782;2022-11-20T07:18:18;6.28;;;1.02;;
75195;SDS011;63773;42.282;22.782;2022-11-20T07:20:44;4.68;;;1.02;;
75195;SDS011;63773;42.282;22.782;2022-11-20T07:23:09;2.92;;;1.02;;
75195;SDS011;63773;42.282;22.782;2022-11-20T07:25:35;13.80;;;4.28;;
75195;SDS011;63773;42.282;22.782;2022-11-20T07:28:00;3.90;;;1.05;;
75195;SDS011;63773;42.282;22.782;2022-11-20T07:30:26;5.93;;;1.15;;
75195;SDS011;63773;42.282;22.782;2022-11-20T07:32:53;3.75;;;0.93;;
75195;SDS011;63773;42.282;22.782;2022-11-20T07:35:20;4.53;;;1.05;;
75195;SDS011;63773;42.282;22.782;2022-11-20T07:37:46;3.28;;;1.13;;
75195;SDS011;63773;42.282;22.782;2022-11-20T07:40:13;5.72;;;1.40;;
75195;SDS011;63773;42.282;22.782;2022-11-20T07:42:47;5.55;;;1.13;;
75195;SDS011;63773;42.282;22.782;2022-11-20T07:45:16;4.53;;;1.33;;
75195;SDS011;63773;42.282;22.782;2022-11-20T07:47:42;5.40;;;0.95;;
75195;SDS011;63773;42.282;22.782;2022-11-20T07:50:08;5.72;;;1.50;;
75195;SDS011;63773;42.282;22.782;2022-11-20T07:52:34;6.13;;;1.85;;
75195;SDS011;63773;42.282;22.782;2022-11-20T07:54:59;5.40;;;1.33;;
75195;SDS011;63773;42.282;22.782;2022-11-20T07:57:25;7.97;;;1.67;;
75195;SDS011;63773;42.282;22.782;2022-11-20T07:59:50;11.18;;;3.88;;
75195;SDS011;63773;42.282;22.782;2022-11-20T08:02:15;5.15;;;1.38;;
75195;SDS011;63773;42.282;22.782;2022-11-20T08:04:41;4.30;;;1.17;;
75195;SDS011;63773;42.282;22.782;2022-11-20T08:07:06;11.07;;;3.00;;
75195;SDS011;63773;42.282;22.782;2022-11-20T08:09:32;5.68;;;1.40;;
75195;SDS011;63773;42.282;22.782;2022-11-20T08:11:57;5.90;;;1.33;;
75195;SDS011;63773;42.282;22.782;2022-11-20T08:14:42;7.10;;;2.42;;
75195;SDS011;63773;42.282;22.782;2022-11-20T08:17:08;5.20;;;1.73;;
75195;SDS011;63773;42.282;22.782;2022-11-20T08:19:33;11.95;;;4.32;;
75195;SDS011;63773;42.282;22.782;2022-11-20T08:21:58;18.15;;;8.75;;
75195;SDS011;63773;42.282;22.782;2022-11-20T08:24:24;13.50;;;7.28;;
75195;SDS011;63773;42.282;22.782;2022-11-20T08:26:51;7.68;;;4.60;;
75195;SDS011;63773;42.282;22.782;2022-11-20T08:29:17;6.28;;;3.90;;
75195;SDS011;63773;42.282;22.782;2022-11-20T08:31:43;3.78;;;2.22;;
75195;SDS011;63773;42.282;22.782;2022-11-20T08:34:08;6.03;;;3.65;;
75195;SDS011;63773;42.282;22.782;2022-11-20T08:36:34;7.45;;;2.28;;
75195;SDS011;63773;42.282;22.782;2022-11-20T08:39:00;4.00;;;1.20;;
75195;SDS011;63773;42.282;22.782;2022-11-20T08:41:25;5.35;;;1.48;;
75195;SDS011;63773;42.282;22.782;2022-11-20T08:43:56;5.50;;;1.15;;
75195;SDS011;63773;42.282;22.782;2022-11-20T08:46:24;5.05;;;0.70;;
75195;SDS011;63773;42.282;22.782;2022-11-20T08:48:51;4.72;;;1.20;;
75195;SDS011;63773;42.282;22.782;2022-11-20T08:51:17;9.93;;;1.10;;
75195;SDS011;63773;42.282;22.782;2022-11-20T08:53:43;6.53;;;1.63;;
75195;SDS011;63773;42.282;22.782;2022-11-20T08:56:09;11.43;;;3.80;;
75195;SDS011;63773;42.282;22.782;2022-11-20T08:58:35;9.48;;;3.22;;
75195;SDS011;63773;42.282;22.782;2022-11-20T09:01:01;6.85;;;2.42;;
75195;SDS011;63773;42.282;22.782;2022-11-20T09:03:26;4.18;;;1.80;;
75195;SDS011;63773;42.282;22.782;2022-11-20T09:06:03;8.18;;;1.98;;
75195;SDS011;63773;42.282;22.782;2022-11-20T09:08:31;6.90;;;2.03;;
75195;SDS011;63773;42.282;22.782;2022-11-20T09:10:57;6.72;;;1.92;;
75195;SDS011;63773;42.282;22.782;2022-11-20T09:13:23;8.05;;;1.60;;
75195;SDS011;63773;42.282;22.782;2022-11-20T09:15:56;8.40;;;1.95;;
75195;SDS011;63773;42.282;22.782;2022-11-20T09:18:24;8.50;;;2.03;;
75195;SDS011;63773;42.282;22.782;2022-11-20T09:20:50;7.90;;;1.98;;
75195;SDS011;63773;42.282;22.782;2022-11-20T09:23:15;7.25;;;2.28;;
75195;SDS011;63773;42.282;22.782;2022-11-20T09:25:42;8.15;;;2.15;;
75195;SDS011;63773;42.282;22.782;2022-11-20T09:28:07;9.57;;;2.95;;
75195;SDS011;63773;42.282;22.782;2022-11-20T09:30:33;6.72;;;2.53;;
75195;SDS011;63773;42.282;22.782;2022-11-20T09:32:58;8.95;;;2.40;;
75195;SDS011;63773;42.282;22.782;2022-11-20T09:35:24;6.95;;;1.75;;
75195;SDS011;63773;42.282;22.782;2022-11-20T09:37:49;5.70;;;1.40;;
75195;SDS011;63773;42.282;22.782;2022-11-20T09:40:22;6.47;;;1.70;;
75195;SDS011;63773;42.282;22.782;2022-11-20T09:42:52;9.02;;;1.60;;
75195;SDS011;63773;42.282;22.782;2022-11-20T09:54:19;7.70;;;2.50;;
75195;SDS011;63773;42.282;22.782;2022-11-20T09:59:38;8.98;;;2.88;;
75195;SDS011;63773;42.282;22.782;2022-11-20T10:04:56;10.10;;;2.85;;
75195;SDS011;63773;42.282;22.782;2022-11-20T10:07:37;10.48;;;3.65;;
75195;SDS011;63773;42.282;22.782;2022-11-20T10:10:05;13.10;;;5.00;;
75195;SDS011;63773;42.282;22.782;2022-11-20T10:31:31;11.40;;;3.55;;
75195;SDS011;63773;42.282;22.782;2022-11-20T10:34:00;6.38;;;1.88;;
75195;SDS011;63773;42.282;22.782;2022-11-20T10:36:31;3.67;;;1.60;;
75195;SDS011;63773;42.282;22.782;2022-11-20T10:42:00;3.67;;;1.13;;
75195;SDS011;63773;42.282;22.782;2022-11-20T10:44:26;2.20;;;0.82;;
75195;SDS011;63773;42.282;22.782;2022-11-20T10:47:15;5.80;;;0.80;;
75195;SDS011;63773;42.282;22.782;2022-11-20T10:49:43;6.40;;;1.92;;
75195;SDS011;63773;42.282;22.782;2022-11-20T10:52:34;4.03;;;1.15;;
75195;SDS011;63773;42.282;22.782;2022-11-20T11:00:33;5.05;;;1.52;;
75195;SDS011;63773;42.282;22.782;2022-11-20T11:02:59;3.60;;;0.65;;
75195;SDS011;63773;42.282;22.782;2022-11-20T11:05:44;2.88;;;0.43;;
75195;SDS011;63773;42.282;22.782;2022-11-20T11:08:28;1.20;;;0.40;;
75195;SDS011;63773;42.282;22.782;2022-11-20T11:10:58;3.67;;;1.00;;
75195;SDS011;63773;42.282;22.782;2022-11-20T11:13:29;1.35;;;0.20;;
75195;SDS011;63773;42.282;22.782;2022-11-20T11:15:55;6.10;;;1.02;;
75195;SDS011;63773;42.282;22.782;2022-11-20T11:18:26;6.78;;;2.70;;
75195;SDS011;63773;42.282;22.782;2022-11-20T11:20:56;5.65;;;1.60;;
75195;SDS011;63773;42.282;22.782;2022-11-20T11:23:41;2.95;;;1.17;;
75195;SDS011;63773;42.282;22.782;2022-11-20T11:26:21;9.02;;;1.88;;
75195;SDS011;63773;42.282;22.782;2022-11-20T11:29:01;14.82;;;4.57;;
75195;SDS011;63773;42.282;22.782;2022-11-20T11:31:30;8.02;;;3.92;;
75195;SDS011;63773;42.282;22.782;2022-11-20T11:34:06;5.70;;;1.52;;
75195;SDS011;63773;42.282;22.782;2022-11-20T11:36:33;8.88;;;3.03;;
75195;SDS011;63773;42.282;22.782;2022-11-20T11:39:00;5.78;;;1.40;;
75195;SDS011;63773;42.282;22.782;2022-11-20T11:41:28;10.07;;;3.20;;
75195;SDS011;63773;42.282;22.782;2022-11-20T11:44:01;13.65;;;5.35;;
75195;SDS011;63773;42.282;22.782;2022-11-20T11:47:00;7.00;;;2.05;;
75195;SDS011;63773;42.282;22.782;2022-11-20T11:49:27;6.63;;;1.45;;
75195;SDS011;63773;42.282;22.782;2022-11-20T11:54:57;5.47;;;0.55;;
75195;SDS011;63773;42.282;22.782;2022-11-20T12:02:32;6.70;;;1.65;;
75195;SDS011;63773;42.282;22.782;2022-11-20T12:07:46;3.40;;;0.70;;
75195;SDS011;63773;42.282;22.782;2022-11-20T12:16:04;3.00;;;1.20;;
75195;SDS011;63773;42.282;22.782;2022-11-20T12:18:29;5.72;;;1.00;;
75195;SDS011;63773;42.282;22.782;2022-11-20T12:23:44;6.57;;;1.27;;
75195;SDS011;63773;42.282;22.782;2022-11-20T12:29:22;3.50;;;0.82;;
75195;SDS011;63773;42.282;22.782;2022-11-20T12:37:48;7.43;;;1.33;;
75195;SDS011;63773;42.282;22.782;2022-11-20T12:46:08;3.55;;;0.82;;
75195;SDS011;63773;42.282;22.782;2022-11-20T12:56:50;5.85;;;1.15;;
75195;SDS011;63773;42.282;22.782;2022-11-20T12:59:38;4.10;;;1.10;;
75195;SDS011;63773;42.282;22.782;2022-11-20T13:07:30;4.78;;;1.48;;
75195;SDS011;63773;42.282;22.782;2022-11-20T13:09:57;7.85;;;1.75;;
75195;SDS011;63773;42.282;22.782;2022-11-20T13:12:27;5.88;;;1.55;;
75195;SDS011;63773;42.282;22.782;2022-11-20T13:18:10;8.80;;;2.00;;
75195;SDS011;63773;42.282;22.782;2022-11-20T13:20:40;7.25;;;1.65;;
75195;SDS011;63773;42.282;22.782;2022-11-20T13:23:08;6.75;;;2.22;;
75195;SDS011;63773;42.282;22.782;2022-11-20T13:25:34;7.05;;;1.35;;
75195;SDS011;63773;42.282;22.782;2022-11-20T13:30:36;7.55;;;1.95;;
75195;SDS011;63773;42.282;22.782;2022-11-20T13:33:23;7.75;;;2.65;;
75195;SDS011;63773;42.282;22.782;2022-11-20T13:38:47;8.05;;;1.60;;
75195;SDS011;63773;42.282;22.782;2022-11-20T13:41:32;3.45;;;1.50;;
75195;SDS011;63773;42.282;22.782;2022-11-20T13:46:39;5.68;;;1.52;;
75195;SDS011;63773;42.282;22.782;2022-11-20T13:49:31;6.60;;;1.83;;
75195;SDS011;63773;42.282;22.782;2022-11-20T14:00:23;9.85;;;2.13;;
75195;SDS011;63773;42.282;22.782;2022-11-20T14:03:01;14.27;;;2.70;;
75195;SDS011;63773;42.282;22.782;2022-11-20T14:05:56;9.80;;;2.08;;
75195;SDS011;63773;42.282;22.782;2022-11-20T14:16:35;12.38;;;4.22;;
75195;SDS011;63773;42.282;22.782;2022-11-20T14:21:42;11.30;;;2.90;;
75195;SDS011;63773;42.282;22.782;2022-11-20T14:24:10;11.05;;;2.78;;
75195;SDS011;63773;42.282;22.782;2022-11-20T14:26:37;9.13;;;2.67;;
75195;SDS011;63773;42.282;22.782;2022-11-20T14:29:14;5.68;;;2.10;;
75195;SDS011;63773;42.282;22.782;2022-11-20T14:31:43;10.73;;;2.83;;
75195;SDS011;63773;42.282;22.782;2022-11-20T14:34:14;9.10;;;3.22;;
75195;SDS011;63773;42.282;22.782;2022-11-20T14:36:43;9.43;;;3.20;;
75195;SDS011;63773;42.282;22.782;2022-11-20T14:39:30;9.82;;;3.60;;
75195;SDS011;63773;42.282;22.782;2022-11-20T14:41:57;11.90;;;3.10;;
75195;SDS011;63773;42.282;22.782;2022-11-20T14:44:25;11.48;;;3.22;;
75195;SDS011;63773;42.282;22.782;2022-11-20T14:46:56;14.15;;;3.72;;
75195;SDS011;63773;42.282;22.782;2022-11-20T14:49:23;9.93;;;2.65;;
75195;SDS011;63773;42.282;22.782;2022-11-20T14:51:58;11.60;;;3.38;;
75195;SDS011;63773;42.282;22.782;2022-11-20T14:54:25;12.73;;;3.30;;
75195;SDS011;63773;42.282;22.782;2022-11-20T14:56:58;12.85;;;3.60;;
75195;SDS011;63773;42.282;22.782;2022-11-20T14:59:28;12.02;;;2.95;;
75195;SDS011;63773;42.282;22.782;2022-11-20T15:01:58;12.68;;;3.58;;
75195;SDS011;63773;42.282;22.782;2022-11-20T15:04:25;13.50;;;4.63;;
75195;SDS011;63773;42.282;22.782;2022-11-20T15:06:53;13.50;;;4.90;;
75195;SDS011;63773;42.282;22.782;2022-11-20T15:09:20;11.82;;;4.70;;
75195;SDS011;63773;42.282;22.782;2022-11-20T15:11:55;13.43;;;3.92;;
75195;SDS011;63773;42.282;22.782;2022-11-20T15:14:23;11.32;;;3.70;;
75195;SDS011;63773;42.282;22.782;2022-11-20T15:16:50;10.95;;;4.47;;
75195;SDS011;63773;42.282;22.782;2022-11-20T15:19:17;17.52;;;3.78;;
75195;SDS011;63773;42.282;22.782;2022-11-20T15:21:45;4.25;;;1.02;;
75195;SDS011;63773;42.282;22.782;2022-11-20T15:24:11;3.45;;;0.70;;
75195;SDS011;63773;42.282;22.782;2022-11-20T15:26:36;4.47;;;0.47;;
75195;SDS011;63773;42.282;22.782;2022-11-20T15:29:05;1.73;;;0.73;;
75195;SDS011;63773;42.282;22.782;2022-11-20T15:31:39;3.97;;;0.57;;
75195;SDS011;63773;42.282;22.782;2022-11-20T15:34:12;2.25;;;0.82;;
75195;SDS011;63773;42.282;22.782;2022-11-20T15:36:39;3.58;;;0.65;;
75195;SDS011;63773;42.282;22.782;2022-11-20T15:39:05;2.35;;;0.20;;
75195;SDS011;63773;42.282;22.782;2022-11-20T15:41:36;1.25;;;0.20;;
75195;SDS011;63773;42.282;22.782;2022-11-20T15:44:05;1.98;;;0.70;;
75195;SDS011;63773;42.282;22.782;2022-11-20T15:46:31;2.35;;;0.95;;
75195;SDS011;63773;42.282;22.782;2022-11-20T15:49:02;1.85;;;0.40;;
75195;SDS011;63773;42.282;22.782;2022-11-20T15:51:35;2.05;;;0.50;;
75195;SDS011;63773;42.282;22.782;2022-11-20T15:54:14;3.55;;;1.60;;
75195;SDS011;63773;42.282;22.782;2022-11-20T15:56:43;2.42;;;1.05;;
75195;SDS011;63773;42.282;22.782;2022-11-20T15:59:08;1.83;;;0.50;;
75195;SDS011;63773;42.282;22.782;2022-11-20T16:01:34;1.75;;;0.25;;
75195;SDS011;63773;42.282;22.782;2022-11-20T16:03:59;1.40;;;0.30;;
75195;SDS011;63773;42.282;22.782;2022-11-20T16:06:26;1.42;;;0.13;;
75195;SDS011;63773;42.282;22.782;2022-11-20T16:08:51;1.70;;;0.25;;
75195;SDS011;63773;42.282;22.782;2022-11-20T16:11:17;0.52;;;0.20;;
75195;SDS011;63773;42.282;22.782;2022-11-20T16:13:43;0.73;;;0.28;;
75195;SDS011;63773;42.282;22.782;2022-11-20T16:16:28;3.35;;;0.50;;
75195;SDS011;63773;42.282;22.782;2022-11-20T16:18:57;1.33;;;0.63;;
75195;SDS011;63773;42.282;22.782;2022-11-20T16:21:23;1.42;;;0.57;;
75195;SDS011;63773;42.282;22.782;2022-11-20T16:24:00;2.70;;;0.60;;
75195;SDS011;63773;42.282;22.782;2022-11-20T16:26:28;1.58;;;0.35;;
75195;SDS011;63773;42.282;22.782;2022-11-20T16:28:54;1.48;;;0.40;;
75195;SDS011;63773;42.282;22.782;2022-11-20T16:31:20;1.33;;;0.50;;
75195;SDS011;63773;42.282;22.782;2022-11-20T16:33:53;1.58;;;0.43;;
75195;SDS011;63773;42.282;22.782;2022-11-20T16:41:12;2.38;;;1.00;;
75195;SDS011;63773;42.282;22.782;2022-11-20T16:43:47;4.38;;;2.15;;
75195;SDS011;63773;42.282;22.782;2022-11-20T16:46:14;5.75;;;1.88;;
75195;SDS011;63773;42.282;22.782;2022-11-20T16:48:41;4.00;;;1.50;;
75195;SDS011;63773;42.282;22.782;2022-11-20T16:51:10;4.00;;;2.08;;
75195;SDS011;63773;42.282;22.782;2022-11-20T16:53:36;4.13;;;1.60;;
75195;SDS011;63773;42.282;22.782;2022-11-20T16:56:35;4.82;;;2.05;;
75195;SDS011;63773;42.282;22.782;2022-11-20T16:58:54;6.03;;;2.63;;
75195;SDS011;63773;42.282;22.782;2022-11-20T17:01:22;4.63;;;2.10;;